sensor_id;sensor_type;location;lat;lon;timestamp;pressure;altitude;pressure_sealevel;temperature;humidity
64253;BME280;50592;52.958;-7.470;2023-12-07T00:01:56;98803.16;;;9.34;100.00
64253;BME280;50592;52.958;-7.470;2023-12-07T00:04:22;98790.63;;;9.36;100.00
64253;BME280;50592;52.958;-7.470;2023-12-07T00:06:47;98779.72;;;9.39;100.00
64253;BME280;50592;52.958;-7.470;2023-12-07T00:09:13;98788.44;;;9.40;100.00
64253;BME280;50592;52.958;-7.470;2023-12-07T00:11:39;98785.16;;;9.38;100.00
64253;BME280;50592;52.958;-7.470;2023-12-07T00:14:10;98773.25;;;9.42;100.00
64253;BME280;50592;52.958;-7.470;2023-12-07T00:16:39;98773.91;;;9.44;100.00
64253;BME280;50592;52.958;-7.470;2023-12-07T00:19:05;98772.72;;;9.47;100.00
64253;BME280;50592;52.958;-7.470;2023-12-07T00:21:33;98765.47;;;9.49;100.00
64253;BME280;50592;52.958;-7.470;2023-12-07T00:24:08;98751.63;;;9.47;100.00
64253;BME280;50592;52.958;-7.470;2023-12-07T00:26:34;98740.91;;;9.48;100.00
64253;BME280;50592;52.958;-7.470;2023-12-07T00:29:00;98744.53;;;9.47;100.00
64253;BME280;50592;52.958;-7.470;2023-12-07T00:31:26;98757.38;;;9.50;100.00
64253;BME280;50592;52.958;-7.470;2023-12-07T00:33:51;98755.53;;;9.51;100.00
64253;BME280;50592;52.958;-7.470;2023-12-07T00:36:17;98760.63;;;9.52;100.00
64253;BME280;50592;52.958;-7.470;2023-12-07T00:38:43;98755.03;;;9.55;100.00
64253;BME280;50592;52.958;-7.470;2023-12-07T00:41:11;98752.38;;;9.55;100.00
64253;BME280;50592;52.958;-7.470;2023-12-07T00:44:06;98757.66;;;9.55;100.00
64253;BME280;50592;52.958;-7.470;2023-12-07T00:46:32;98760.91;;;9.58;100.00
64253;BME280;50592;52.958;-7.470;2023-12-07T00:48:58;98751.19;;;9.58;100.00
64253;BME280;50592;52.958;-7.470;2023-12-07T00:51:24;98739.81;;;9.58;100.00
64253;BME280;50592;52.958;-7.470;2023-12-07T00:53:50;98736.00;;;9.60;100.00
64253;BME280;50592;52.958;-7.470;2023-12-07T00:56:19;98730.75;;;9.60;100.00
64253;BME280;50592;52.958;-7.470;2023-12-07T00:59:05;98727.56;;;9.65;100.00
64253;BME280;50592;52.958;-7.470;2023-12-07T01:01:32;98720.44;;;9.65;100.00
64253;BME280;50592;52.958;-7.470;2023-12-07T01:03:58;98724.75;;;9.66;100.00
64253;BME280;50592;52.958;-7.470;2023-12-07T01:06:32;98712.72;;;9.64;100.00
64253;BME280;50592;52.958;-7.470;2023-12-07T01:08:58;98724.75;;;9.66;100.00
64253;BME280;50592;52.958;-7.470;2023-12-07T01:11:24;98720.06;;;9.68;100.00
64253;BME280;50592;52.958;-7.470;2023-12-07T01:13:55;98717.91;;;9.72;100.00
64253;BME280;50592;52.958;-7.470;2023-12-07T01:16:43;98716.91;;;9.73;100.00
64253;BME280;50592;52.958;-7.470;2023-12-07T01:19:11;98716.28;;;9.71;100.00
64253;BME280;50592;52.958;-7.470;2023-12-07T01:25:13;98710.63;;;9.74;100.00
64253;BME280;50592;52.958;-7.470;2023-12-07T01:27:45;98713.72;;;9.78;100.00
64253;BME280;50592;52.958;-7.470;2023-12-07T01:30:11;98704.81;;;9.79;100.00
64253;BME280;50592;52.958;-7.470;2023-12-07T01:32:39;98704.16;;;9.77;100.00
64253;BME280;50592;52.958;-7.470;2023-12-07T01:35:25;98686.97;;;9.81;100.00
64253;BME280;50592;52.958;-7.470;2023-12-07T01:37:51;98689.25;;;9.84;100.00
64253;BME280;50592;52.958;-7.470;2023-12-07T01:40:16;98678.84;;;9.83;100.00
64253;BME280;50592;52.958;-7.470;2023-12-07T01:42:50;98681.97;;;9.86;100.00
64253;BME280;50592;52.958;-7.470;2023-12-07T01:45:19;98675.88;;;9.86;100.00
64253;BME280;50592;52.958;-7.470;2023-12-07T01:47:45;98670.41;;;9.87;100.00
64253;BME280;50592;52.958;-7.470;2023-12-07T01:50:14;98664.97;;;9.89;100.00
64253;BME280;50592;52.958;-7.470;2023-12-07T01:52:45;98664.13;;;9.88;100.00
64253;BME280;50592;52.958;-7.470;2023-12-07T01:55:13;98660.28;;;9.91;100.00
64253;BME280;50592;52.958;-7.470;2023-12-07T01:57:40;98661.59;;;9.95;100.00
64253;BME280;50592;52.958;-7.470;2023-12-07T02:00:07;98668.47;;;9.96;100.00
64253;BME280;50592;52.958;-7.470;2023-12-07T02:02:35;98664.03;;;9.97;100.00
64253;BME280;50592;52.958;-7.470;2023-12-07T02:05:01;98668.13;;;9.99;100.00
64253;BME280;50592;52.958;-7.470;2023-12-07T02:07:27;98656.13;;;9.97;100.00
64253;BME280;50592;52.958;-7.470;2023-12-07T02:09:53;98655.94;;;9.98;100.00
64253;BME280;50592;52.958;-7.470;2023-12-07T02:12:19;98667.09;;;10.00;100.00
64253;BME280;50592;52.958;-7.470;2023-12-07T02:14:48;98644.16;;;10.01;100.00
64253;BME280;50592;52.958;-7.470;2023-12-07T02:17:16;98636.91;;;10.03;100.00
64253;BME280;50592;52.958;-7.470;2023-12-07T02:22:10;98634.50;;;10.08;100.00
64253;BME280;50592;52.958;-7.470;2023-12-07T02:24:38;98629.22;;;10.08;100.00
64253;BME280;50592;52.958;-7.470;2023-12-07T02:27:13;98631.25;;;10.06;100.00
64253;BME280;50592;52.958;-7.470;2023-12-07T02:29:39;98627.41;;;10.09;100.00
64253;BME280;50592;52.958;-7.470;2023-12-07T02:32:05;98635.97;;;10.11;100.00
64253;BME280;50592;52.958;-7.470;2023-12-07T02:34:31;98629.66;;;10.12;100.00
64253;BME280;50592;52.958;-7.470;2023-12-07T02:36:56;98638.41;;;10.12;100.00
64253;BME280;50592;52.958;-7.470;2023-12-07T02:39:22;98630.50;;;10.12;100.00
64253;BME280;50592;52.958;-7.470;2023-12-07T02:41:49;98624.84;;;10.15;100.00
64253;BME280;50592;52.958;-7.470;2023-12-07T02:44:15;98621.38;;;10.15;100.00
64253;BME280;50592;52.958;-7.470;2023-12-07T02:46:41;98636.66;;;10.20;100.00
64253;BME280;50592;52.958;-7.470;2023-12-07T02:49:07;98630.56;;;10.19;100.00
64253;BME280;50592;52.958;-7.470;2023-12-07T02:51:32;98624.47;;;10.18;100.00
64253;BME280;50592;52.958;-7.470;2023-12-07T02:53:58;98616.56;;;10.18;100.00
64253;BME280;50592;52.958;-7.470;2023-12-07T02:56:24;98620.03;;;10.19;100.00
64253;BME280;50592;52.958;-7.470;2023-12-07T02:58:49;98611.72;;;10.22;100.00
64253;BME280;50592;52.958;-7.470;2023-12-07T03:01:15;98605.22;;;10.25;100.00
64253;BME280;50592;52.958;-7.470;2023-12-07T03:03:40;98607.06;;;10.24;100.00
64253;BME280;50592;52.958;-7.470;2023-12-07T03:06:07;98610.50;;;10.25;100.00
64253;BME280;50592;52.958;-7.470;2023-12-07T03:08:33;98601.41;;;10.27;100.00
64253;BME280;50592;52.958;-7.470;2023-12-07T03:10:58;98604.84;;;10.28;100.00
64253;BME280;50592;52.958;-7.470;2023-12-07T03:13:24;98604.03;;;10.27;100.00
64253;BME280;50592;52.958;-7.470;2023-12-07T03:15:49;98598.56;;;10.29;100.00
64253;BME280;50592;52.958;-7.470;2023-12-07T03:18:15;98593.28;;;10.29;100.00
64253;BME280;50592;52.958;-7.470;2023-12-07T03:20:40;98588.63;;;10.31;100.00
64253;BME280;50592;52.958;-7.470;2023-12-07T03:23:06;98587.00;;;10.30;100.00
64253;BME280;50592;52.958;-7.470;2023-12-07T03:25:32;98588.81;;;10.29;100.00
64253;BME280;50592;52.958;-7.470;2023-12-07T03:27:58;98591.03;;;10.26;100.00
64253;BME280;50592;52.958;-7.470;2023-12-07T03:30:23;98593.25;;;10.22;100.00
64253;BME280;50592;52.958;-7.470;2023-12-07T03:32:49;98577.59;;;10.21;100.00
64253;BME280;50592;52.958;-7.470;2023-12-07T03:35:14;98569.84;;;10.19;100.00
64253;BME280;50592;52.958;-7.470;2023-12-07T03:37:40;98561.47;;;10.15;100.00
64253;BME280;50592;52.958;-7.470;2023-12-07T03:40:06;98566.94;;;10.14;100.00
64253;BME280;50592;52.958;-7.470;2023-12-07T03:42:32;98573.84;;;10.15;100.00
64253;BME280;50592;52.958;-7.470;2023-12-07T03:44:57;98560.25;;;10.11;100.00
64253;BME280;50592;52.958;-7.470;2023-12-07T03:47:23;98556.59;;;10.12;100.00
64253;BME280;50592;52.958;-7.470;2023-12-07T03:49:49;98556.59;;;10.12;100.00
64253;BME280;50592;52.958;-7.470;2023-12-07T03:52:14;98556.59;;;10.12;100.00
64253;BME280;50592;52.958;-7.470;2023-12-07T03:54:40;98552.47;;;10.10;100.00
64253;BME280;50592;52.958;-7.470;2023-12-07T03:57:05;98537.47;;;10.10;100.00
64253;BME280;50592;52.958;-7.470;2023-12-07T03:59:31;98528.91;;;10.08;100.00
64253;BME280;50592;52.958;-7.470;2023-12-07T04:01:56;98533.56;;;10.06;100.00
64253;BME280;50592;52.958;-7.470;2023-12-07T04:04:22;98537.00;;;10.07;100.00
64253;BME280;50592;52.958;-7.470;2023-12-07T04:06:47;98535.97;;;10.01;100.00
64253;BME280;50592;52.958;-7.470;2023-12-07T04:09:13;98525.41;;;10.01;100.00
64253;BME280;50592;52.958;-7.470;2023-12-07T04:11:39;98531.31;;;10.03;100.00
64253;BME280;50592;52.958;-7.470;2023-12-07T04:14:05;98515.47;;;10.03;100.00
64253;BME280;50592;52.958;-7.470;2023-12-07T04:16:30;98515.28;;;10.04;100.00
64253;BME280;50592;52.958;-7.470;2023-12-07T04:18:56;98512.66;;;10.04;100.00
64253;BME280;50592;52.958;-7.470;2023-12-07T04:21:21;98512.88;;;10.10;100.00
64253;BME280;50592;52.958;-7.470;2023-12-07T04:23:47;98506.44;;;10.12;100.00
64253;BME280;50592;52.958;-7.470;2023-12-07T04:26:13;98498.13;;;10.15;100.00
64253;BME280;50592;52.958;-7.470;2023-12-07T04:28:39;98497.75;;;10.18;100.00
64253;BME280;50592;52.958;-7.470;2023-12-07T04:31:04;98498.38;;;10.21;100.00
64253;BME280;50592;52.958;-7.470;2023-12-07T04:33:30;98503.28;;;10.24;100.00
64253;BME280;50592;52.958;-7.470;2023-12-07T04:35:56;98493.72;;;10.23;100.00
64253;BME280;50592;52.958;-7.470;2023-12-07T04:38:21;98485.97;;;10.21;100.00
64253;BME280;50592;52.958;-7.470;2023-12-07T04:40:47;98481.53;;;10.22;100.00
64253;BME280;50592;52.958;-7.470;2023-12-07T04:43:13;98474.81;;;10.19;100.00
64253;BME280;50592;52.958;-7.470;2023-12-07T04:45:38;98480.88;;;10.20;100.00
64253;BME280;50592;52.958;-7.470;2023-12-07T04:48:04;98483.72;;;10.18;100.00
64253;BME280;50592;52.958;-7.470;2023-12-07T04:50:29;98476.63;;;10.18;100.00
64253;BME280;50592;52.958;-7.470;2023-12-07T04:52:55;98464.66;;;10.23;100.00
64253;BME280;50592;52.958;-7.470;2023-12-07T04:55:20;98461.81;;;10.24;100.00
64253;BME280;50592;52.958;-7.470;2023-12-07T04:57:46;98457.19;;;10.26;100.00
64253;BME280;50592;52.958;-7.470;2023-12-07T05:00:12;98449.66;;;10.23;100.00
64253;BME280;50592;52.958;-7.470;2023-12-07T05:02:39;98448.59;;;10.17;100.00
64253;BME280;50592;52.958;-7.470;2023-12-07T05:05:04;98445.31;;;10.15;100.00
64253;BME280;50592;52.958;-7.470;2023-12-07T05:07:30;98445.50;;;10.14;100.00
64253;BME280;50592;52.958;-7.470;2023-12-07T05:09:56;98447.56;;;10.18;100.00
64253;BME280;50592;52.958;-7.470;2023-12-07T05:12:22;98431.75;;;10.18;100.00
64253;BME280;50592;52.958;-7.470;2023-12-07T05:14:47;98428.53;;;10.23;100.00
64253;BME280;50592;52.958;-7.470;2023-12-07T05:17:13;98422.59;;;10.21;100.00
64253;BME280;50592;52.958;-7.470;2023-12-07T05:19:40;98412.44;;;10.18;100.00
64253;BME280;50592;52.958;-7.470;2023-12-07T05:22:06;98406.09;;;10.12;100.00
64253;BME280;50592;52.958;-7.470;2023-12-07T05:24:31;98405.66;;;10.09;100.00
64253;BME280;50592;52.958;-7.470;2023-12-07T05:26:59;98397.94;;;10.07;100.00
64253;BME280;50592;52.958;-7.470;2023-12-07T05:29:25;98394.09;;;10.10;100.00
64253;BME280;50592;52.958;-7.470;2023-12-07T05:31:50;98390.06;;;10.14;100.00
64253;BME280;50592;52.958;-7.470;2023-12-07T05:34:16;98378.50;;;10.15;100.00
64253;BME280;50592;52.958;-7.470;2023-12-07T05:36:43;98390.53;;;10.17;100.00
64253;BME280;50592;52.958;-7.470;2023-12-07T05:39:08;98385.25;;;10.17;100.00
64253;BME280;50592;52.958;-7.470;2023-12-07T05:41:34;98383.41;;;10.18;100.00
64253;BME280;50592;52.958;-7.470;2023-12-07T05:43:59;98385.44;;;10.16;100.00
64253;BME280;50592;52.958;-7.470;2023-12-07T05:46:25;98390.94;;;10.21;100.00
64253;BME280;50592;52.958;-7.470;2023-12-07T05:48:50;98398.84;;;10.21;100.00
64253;BME280;50592;52.958;-7.470;2023-12-07T05:51:16;98398.06;;;10.21;100.00
64253;BME280;50592;52.958;-7.470;2023-12-07T05:53:43;98381.38;;;10.20;100.00
64253;BME280;50592;52.958;-7.470;2023-12-07T05:56:09;98368.63;;;10.24;100.00
64253;BME280;50592;52.958;-7.470;2023-12-07T05:58:34;98373.91;;;10.24;100.00
64253;BME280;50592;52.958;-7.470;2023-12-07T06:01:00;98372.88;;;10.25;100.00
64253;BME280;50592;52.958;-7.470;2023-12-07T06:03:26;98360.50;;;10.25;100.00
64253;BME280;50592;52.958;-7.470;2023-12-07T06:05:52;98345.91;;;10.29;100.00
64253;BME280;50592;52.958;-7.470;2023-12-07T06:08:18;98348.34;;;10.31;100.00
64253;BME280;50592;52.958;-7.470;2023-12-07T06:10:43;98340.63;;;10.29;100.00
64253;BME280;50592;52.958;-7.470;2023-12-07T06:13:09;98339.78;;;10.29;100.00
64253;BME280;50592;52.958;-7.470;2023-12-07T06:15:35;98342.22;;;10.30;100.00
64253;BME280;50592;52.958;-7.470;2023-12-07T06:18:01;98348.34;;;10.31;100.00
64253;BME280;50592;52.958;-7.470;2023-12-07T06:20:27;98345.69;;;10.31;100.00
64253;BME280;50592;52.958;-7.470;2023-12-07T06:22:52;98342.03;;;10.32;100.00
64253;BME280;50592;52.958;-7.470;2023-12-07T06:25:18;98333.94;;;10.34;100.00
64253;BME280;50592;52.958;-7.470;2023-12-07T06:27:43;98324.19;;;10.34;100.00
64253;BME280;50592;52.958;-7.470;2023-12-07T06:30:09;98318.72;;;10.36;100.00
64253;BME280;50592;52.958;-7.470;2023-12-07T06:32:36;98327.22;;;10.31;100.00
64253;BME280;50592;52.958;-7.470;2023-12-07T06:35:02;98332.50;;;10.31;100.00
64253;BME280;50592;52.958;-7.470;2023-12-07T06:37:30;98325.59;;;10.30;100.00
64253;BME280;50592;52.958;-7.470;2023-12-07T06:39:55;98322.56;;;10.33;100.00
64253;BME280;50592;52.958;-7.470;2023-12-07T06:42:21;98321.78;;;10.39;100.00
64253;BME280;50592;52.958;-7.470;2023-12-07T06:44:47;98315.69;;;10.39;100.00
64253;BME280;50592;52.958;-7.470;2023-12-07T06:47:13;98301.28;;;10.41;100.00
64253;BME280;50592;52.958;-7.470;2023-12-07T06:49:39;98290.72;;;10.41;100.00
64253;BME280;50592;52.958;-7.470;2023-12-07T06:52:05;98293.16;;;10.43;100.00
64253;BME280;50592;52.958;-7.470;2023-12-07T06:54:30;98282.41;;;10.45;100.00
64253;BME280;50592;52.958;-7.470;2023-12-07T06:56:56;98263.56;;;10.48;100.00
64253;BME280;50592;52.958;-7.470;2023-12-07T06:59:21;98254.41;;;10.50;100.00
64253;BME280;50592;52.958;-7.470;2023-12-07T07:01:47;98249.53;;;10.54;100.00
64253;BME280;50592;52.958;-7.470;2023-12-07T07:04:13;98254.59;;;10.49;100.00
64253;BME280;50592;52.958;-7.470;2023-12-07T07:06:39;98244.03;;;10.49;100.00
64253;BME280;50592;52.958;-7.470;2023-12-07T07:09:05;98251.75;;;10.50;100.00
64253;BME280;50592;52.958;-7.470;2023-12-07T07:11:31;98244.66;;;10.51;100.00
64253;BME280;50592;52.958;-7.470;2023-12-07T07:13:56;98231.66;;;10.49;100.00
64253;BME280;50592;52.958;-7.470;2023-12-07T07:16:22;98244.88;;;10.49;100.00
64253;BME280;50592;52.958;-7.470;2023-12-07T07:18:47;98227.38;;;10.48;100.00
64253;BME280;50592;52.958;-7.470;2023-12-07T07:21:13;98227.78;;;10.52;100.00
64253;BME280;50592;52.958;-7.470;2023-12-07T07:23:39;98229.59;;;10.51;100.00
64253;BME280;50592;52.958;-7.470;2023-12-07T07:26:04;98224.53;;;10.50;100.00
64253;BME280;50592;52.958;-7.470;2023-12-07T07:28:31;98223.53;;;10.51;100.00
64253;BME280;50592;52.958;-7.470;2023-12-07T07:30:56;98225.78;;;10.54;100.00
64253;BME280;50592;52.958;-7.470;2023-12-07T07:33:22;98220.69;;;10.52;100.00
64253;BME280;50592;52.958;-7.470;2023-12-07T07:35:47;98204.03;;;10.52;100.00
64253;BME280;50592;52.958;-7.470;2023-12-07T07:38:13;98195.47;;;10.50;100.00
64253;BME280;50592;52.958;-7.470;2023-12-07T07:40:40;98192.84;;;10.50;100.00
64253;BME280;50592;52.958;-7.470;2023-12-07T07:43:07;98191.84;;;10.51;100.00
64253;BME280;50592;52.958;-7.470;2023-12-07T07:45:32;98192.63;;;10.51;100.00
64253;BME280;50592;52.958;-7.470;2023-12-07T07:47:58;98203.41;;;10.57;100.00
64253;BME280;50592;52.958;-7.470;2023-12-07T07:50:23;98191.81;;;10.58;100.00
64253;BME280;50592;52.958;-7.470;2023-12-07T07:52:49;98198.97;;;10.57;100.00
64253;BME280;50592;52.958;-7.470;2023-12-07T07:55:15;98188.59;;;10.56;100.00
64253;BME280;50592;52.958;-7.470;2023-12-07T07:57:40;98200.38;;;10.60;100.00
64253;BME280;50592;52.958;-7.470;2023-12-07T08:00:06;98190.63;;;10.60;100.00
64253;BME280;50592;52.958;-7.470;2023-12-07T08:02:34;98208.09;;;10.61;100.00
64253;BME280;50592;52.958;-7.470;2023-12-07T08:05:00;98201.19;;;10.60;100.00
64253;BME280;50592;52.958;-7.470;2023-12-07T08:07:25;98197.72;;;10.60;100.00
64253;BME280;50592;52.958;-7.470;2023-12-07T08:09:51;98182.09;;;10.65;100.00
64253;BME280;50592;52.958;-7.470;2023-12-07T08:12:17;98180.47;;;10.64;100.00
64253;BME280;50592;52.958;-7.470;2023-12-07T08:14:43;98186.16;;;10.67;100.00
64253;BME280;50592;52.958;-7.470;2023-12-07T08:17:10;98174.41;;;10.70;100.00
64253;BME280;50592;52.958;-7.470;2023-12-07T08:19:36;98181.50;;;10.70;100.00
64253;BME280;50592;52.958;-7.470;2023-12-07T08:22:03;98180.47;;;10.71;100.00
64253;BME280;50592;52.958;-7.470;2023-12-07T08:24:28;98176.00;;;10.71;100.00
64253;BME280;50592;52.958;-7.470;2023-12-07T08:26:54;98174.59;;;10.69;100.00
64253;BME280;50592;52.958;-7.470;2023-12-07T08:29:19;98162.19;;;10.69;100.00
64253;BME280;50592;52.958;-7.470;2023-12-07T08:31:45;98145.13;;;10.72;100.00
64253;BME280;50592;52.958;-7.470;2023-12-07T08:34:12;98121.94;;;10.74;100.00
64253;BME280;50592;52.958;-7.470;2023-12-07T08:36:38;98121.34;;;10.72;100.00
64253;BME280;50592;52.958;-7.470;2023-12-07T08:39:03;98114.22;;;10.72;100.00
64253;BME280;50592;52.958;-7.470;2023-12-07T08:41:29;98119.50;;;10.72;100.00
64253;BME280;50592;52.958;-7.470;2023-12-07T08:43:58;98103.25;;;10.75;100.00
64253;BME280;50592;52.958;-7.470;2023-12-07T08:46:27;98107.31;;;10.78;100.00
64253;BME280;50592;52.958;-7.470;2023-12-07T08:48:52;98102.84;;;10.78;100.00
64253;BME280;50592;52.958;-7.470;2023-12-07T08:51:19;98104.06;;;10.83;100.00
64253;BME280;50592;52.958;-7.470;2023-12-07T08:53:45;98095.53;;;10.81;100.00
64253;BME280;50592;52.958;-7.470;2023-12-07T08:56:10;98087.41;;;10.82;100.00
64253;BME280;50592;52.958;-7.470;2023-12-07T08:58:38;98090.66;;;10.84;100.00
64253;BME280;50592;52.958;-7.470;2023-12-07T09:01:04;98080.66;;;10.86;100.00
64253;BME280;50592;52.958;-7.470;2023-12-07T09:03:31;98077.03;;;10.87;100.00
64253;BME280;50592;52.958;-7.470;2023-12-07T09:05:59;98077.81;;;10.88;100.00
64253;BME280;50592;52.958;-7.470;2023-12-07T09:08:25;98076.41;;;10.92;100.00
64253;BME280;50592;52.958;-7.470;2023-12-07T09:10:50;98066.63;;;10.99;100.00
64253;BME280;50592;52.958;-7.470;2023-12-07T09:13:17;98067.25;;;11.01;100.00
64253;BME280;50592;52.958;-7.470;2023-12-07T09:15:42;98059.09;;;11.03;100.00
64253;BME280;50592;52.958;-7.470;2023-12-07T09:18:08;98040.41;;;11.04;100.00
64253;BME280;50592;52.958;-7.470;2023-12-07T09:20:36;98043.25;;;11.03;100.00
64253;BME280;50592;52.958;-7.470;2023-12-07T09:23:03;98042.00;;;11.06;100.00
64253;BME280;50592;52.958;-7.470;2023-12-07T09:25:28;98021.69;;;11.13;100.00
64253;BME280;50592;52.958;-7.470;2023-12-07T09:27:55;98020.25;;;11.10;100.00
64253;BME280;50592;52.958;-7.470;2023-12-07T09:30:21;98013.53;;;11.14;100.00
64253;BME280;50592;52.958;-7.470;2023-12-07T09:32:47;98017.78;;;11.15;100.00
64253;BME280;50592;52.958;-7.470;2023-12-07T09:35:13;98021.63;;;11.20;100.00
64253;BME280;50592;52.958;-7.470;2023-12-07T09:37:40;98019.19;;;11.25;100.00
64253;BME280;50592;52.958;-7.470;2023-12-07T09:40:31;98000.47;;;11.26;100.00
64253;BME280;50592;52.958;-7.470;2023-12-07T09:43:00;97989.09;;;11.26;100.00
64253;BME280;50592;52.958;-7.470;2023-12-07T09:45:29;97984.59;;;11.26;100.00
64253;BME280;50592;52.958;-7.470;2023-12-07T09:47:56;97987.03;;;11.28;100.00
64253;BME280;50592;52.958;-7.470;2023-12-07T09:50:25;97990.72;;;11.27;100.00
64253;BME280;50592;52.958;-7.470;2023-12-07T09:52:51;97988.88;;;11.27;100.00
64253;BME280;50592;52.958;-7.470;2023-12-07T09:55:18;98005.53;;;11.28;100.00
64253;BME280;50592;52.958;-7.470;2023-12-07T09:57:45;98010.41;;;11.31;100.00
64253;BME280;50592;52.958;-7.470;2023-12-07T10:00:11;98006.13;;;11.37;100.00
64253;BME280;50592;52.958;-7.470;2023-12-07T10:02:40;97996.97;;;11.39;100.00
64253;BME280;50592;52.958;-7.470;2023-12-07T10:05:07;97990.25;;;11.37;100.00
64253;BME280;50592;52.958;-7.470;2023-12-07T10:07:47;97982.69;;;11.40;100.00
64253;BME280;50592;52.958;-7.470;2023-12-07T10:10:17;97969.25;;;11.42;100.00
64253;BME280;50592;52.958;-7.470;2023-12-07T10:15:18;97972.91;;;11.48;100.00
64253;BME280;50592;52.958;-7.470;2023-12-07T10:20:11;97974.31;;;11.50;100.00
64253;BME280;50592;52.958;-7.470;2023-12-07T10:22:38;97975.34;;;11.49;100.00
64253;BME280;50592;52.958;-7.470;2023-12-07T10:25:04;97974.72;;;11.54;100.00
64253;BME280;50592;52.958;-7.470;2023-12-07T10:27:30;97960.88;;;11.52;100.00
64253;BME280;50592;52.958;-7.470;2023-12-07T10:30:00;97965.97;;;11.53;100.00
64253;BME280;50592;52.958;-7.470;2023-12-07T10:32:26;97945.41;;;11.56;100.00
64253;BME280;50592;52.958;-7.470;2023-12-07T10:34:52;97950.69;;;11.56;100.00
64253;BME280;50592;52.958;-7.470;2023-12-07T10:37:18;97940.94;;;11.56;100.00
64253;BME280;50592;52.958;-7.470;2023-12-07T10:39:43;97916.69;;;11.59;100.00
64253;BME280;50592;52.958;-7.470;2023-12-07T10:42:09;97915.25;;;11.57;100.00
64253;BME280;50592;52.958;-7.470;2023-12-07T10:44:44;97906.97;;;11.53;100.00
64253;BME280;50592;52.958;-7.470;2023-12-07T10:47:11;97917.53;;;11.53;100.00
64253;BME280;50592;52.958;-7.470;2023-12-07T10:49:42;97903.91;;;11.56;100.00
64253;BME280;50592;52.958;-7.470;2023-12-07T10:52:12;97909.34;;;11.61;100.00
64253;BME280;50592;52.958;-7.470;2023-12-07T10:57:14;97901.03;;;11.58;100.00
64253;BME280;50592;52.958;-7.470;2023-12-07T10:59:39;97900.00;;;11.59;100.00
64253;BME280;50592;52.958;-7.470;2023-12-07T11:02:05;97909.97;;;11.57;100.00
64253;BME280;50592;52.958;-7.470;2023-12-07T11:04:32;97918.34;;;11.53;100.00
64253;BME280;50592;52.958;-7.470;2023-12-07T11:07:01;97910.84;;;11.50;100.00
64253;BME280;50592;52.958;-7.470;2023-12-07T11:09:30;97926.69;;;11.50;100.00
64253;BME280;50592;52.958;-7.470;2023-12-07T11:12:01;97926.28;;;11.53;100.00
64253;BME280;50592;52.958;-7.470;2023-12-07T11:14:29;97944.00;;;11.53;100.00
64253;BME280;50592;52.958;-7.470;2023-12-07T11:16:55;97930.78;;;11.53;100.00
64253;BME280;50592;52.958;-7.470;2023-12-07T11:22:01;97915.13;;;11.51;100.00
64253;BME280;50592;52.958;-7.470;2023-12-07T11:24:27;97917.38;;;11.48;100.00
64253;BME280;50592;52.958;-7.470;2023-12-07T11:26:55;97914.94;;;11.46;100.00
64253;BME280;50592;52.958;-7.470;2023-12-07T11:29:29;97912.88;;;11.48;100.00
64253;BME280;50592;52.958;-7.470;2023-12-07T11:32:02;97918.59;;;11.45;100.00
64253;BME280;50592;52.958;-7.470;2023-12-07T11:34:38;97919.41;;;11.46;100.00
64253;BME280;50592;52.958;-7.470;2023-12-07T11:37:15;97915.78;;;11.40;100.00
64253;BME280;50592;52.958;-7.470;2023-12-07T11:39:44;97920.28;;;11.33;100.00
64253;BME280;50592;52.958;-7.470;2023-12-07T11:42:28;97913.81;;;11.28;100.00
64253;BME280;50592;52.958;-7.470;2023-12-07T11:44:55;97913.63;;;11.23;100.00
64253;BME280;50592;52.958;-7.470;2023-12-07T11:47:21;97916.47;;;11.22;100.00
64253;BME280;50592;52.958;-7.470;2023-12-07T11:49:47;97909.75;;;11.26;100.00
64253;BME280;50592;52.958;-7.470;2023-12-07T11:52:13;97904.28;;;11.27;100.00
64253;BME280;50592;52.958;-7.470;2023-12-07T11:54:40;97906.06;;;11.34;100.00
64253;BME280;50592;52.958;-7.470;2023-12-07T11:57:08;97910.72;;;11.38;100.00
64253;BME280;50592;52.958;-7.470;2023-12-07T11:59:34;97901.75;;;11.39;100.00
64253;BME280;50592;52.958;-7.470;2023-12-07T12:02:00;97918.03;;;11.36;100.00
64253;BME280;50592;52.958;-7.470;2023-12-07T12:04:28;97909.72;;;11.33;100.00
64253;BME280;50592;52.958;-7.470;2023-12-07T12:06:53;97919.91;;;11.29;100.00
64253;BME280;50592;52.958;-7.470;2023-12-07T12:09:20;97913.00;;;11.21;100.00
64253;BME280;50592;52.958;-7.470;2023-12-07T12:11:46;97924.66;;;11.13;100.00
64253;BME280;50592;52.958;-7.470;2023-12-07T12:14:15;97917.34;;;11.09;100.00
64253;BME280;50592;52.958;-7.470;2023-12-07T12:16:42;97915.75;;;11.01;100.00
64253;BME280;50592;52.958;-7.470;2023-12-07T12:19:08;97913.75;;;10.96;100.00
64253;BME280;50592;52.958;-7.470;2023-12-07T12:21:34;97908.06;;;10.92;100.00
64253;BME280;50592;52.958;-7.470;2023-12-07T12:24:00;97907.47;;;10.90;100.00
64253;BME280;50592;52.958;-7.470;2023-12-07T12:26:26;97917.22;;;10.90;100.00
64253;BME280;50592;52.958;-7.470;2023-12-07T12:28:52;97924.94;;;10.91;100.00
64253;BME280;50592;52.958;-7.470;2023-12-07T12:31:21;97925.16;;;10.90;100.00
64253;BME280;50592;52.958;-7.470;2023-12-07T12:33:48;97928.63;;;10.90;100.00
64253;BME280;50592;52.958;-7.470;2023-12-07T12:36:15;97925.38;;;10.88;100.00
64253;BME280;50592;52.958;-7.470;2023-12-07T12:38:42;97931.91;;;10.86;100.00
64253;BME280;50592;52.958;-7.470;2023-12-07T12:41:08;97930.47;;;10.83;100.00
64253;BME280;50592;52.958;-7.470;2023-12-07T12:43:34;97920.09;;;10.82;100.00
64253;BME280;50592;52.958;-7.470;2023-12-07T12:45:59;97920.09;;;10.82;100.00
64253;BME280;50592;52.958;-7.470;2023-12-07T12:48:25;97916.66;;;10.81;100.00
64253;BME280;50592;52.958;-7.470;2023-12-07T12:50:50;97910.97;;;10.77;100.00
64253;BME280;50592;52.958;-7.470;2023-12-07T12:53:16;97910.38;;;10.75;100.00
64253;BME280;50592;52.958;-7.470;2023-12-07T12:55:42;97913.00;;;10.75;100.00